createdAt,value
2018-07-11T00:03:49.880Z,20.70
2018-07-11T00:06:22.496Z,20.70
2018-07-11T00:08:54.059Z,20.70
2018-07-11T00:11:26.063Z,20.60
2018-07-11T00:16:29.560Z,20.60
2018-07-11T00:19:00.941Z,20.60
2018-07-11T00:37:25.684Z,20.50
2018-07-11T00:39:57.213Z,20.40
2018-07-11T00:42:28.922Z,20.40
2018-07-11T00:45:00.778Z,20.40
2018-07-11T00:47:32.594Z,20.30
2018-07-11T00:50:03.909Z,20.30
2018-07-11T00:52:36.560Z,20.30
2018-07-11T00:55:08.114Z,20.30
2018-07-11T00:57:42.133Z,20.20
2018-07-11T01:00:13.607Z,20.10
2018-07-11T01:02:45.506Z,20.10
2018-07-11T01:05:17.012Z,20.00
2018-07-11T01:07:48.514Z,20.00
2018-07-11T01:10:20.461Z,19.80
2018-07-11T01:12:51.903Z,19.90
2018-07-11T01:15:23.829Z,19.80
2018-07-11T01:18:05.414Z,19.70
2018-07-11T01:20:36.939Z,19.80
2018-07-11T01:23:08.954Z,19.80
2018-07-11T01:25:40.247Z,19.80
2018-07-11T01:28:12.278Z,19.80
2018-07-11T01:33:14.353Z,19.70
2018-07-11T01:35:45.731Z,19.70
2018-07-11T01:40:47.815Z,19.60
2018-07-11T01:43:19.100Z,19.50
2018-07-11T01:45:50.495Z,19.50
2018-07-11T01:48:22.050Z,19.40
2018-07-11T01:50:54.151Z,19.40
2018-07-11T01:53:25.823Z,19.40
2018-07-11T01:56:07.226Z,19.50
2018-07-11T02:01:44.089Z,19.50
2018-07-11T02:04:36.132Z,19.40
2018-07-11T02:07:08.670Z,19.40
2018-07-11T02:09:40.234Z,19.40
2018-07-11T02:12:21.681Z,19.50
2018-07-11T02:14:58.500Z,19.40
2018-07-11T02:17:29.956Z,19.40
2018-07-11T02:20:07.348Z,19.30
2018-07-11T02:22:40.395Z,19.30
2018-07-11T02:25:13.404Z,19.20
2018-07-11T02:27:46.319Z,19.20
2018-07-11T02:30:18.510Z,19.20
2018-07-11T02:32:50.000Z,19.30
2018-07-11T02:35:21.617Z,19.40
2018-07-11T02:38:53.062Z,19.40
2018-07-11T02:41:26.857Z,19.30
2018-07-11T02:43:58.577Z,19.50
2018-07-11T02:46:35.223Z,19.40
2018-07-11T02:49:06.814Z,19.40
2018-07-11T02:51:53.389Z,19.40
2018-07-11T02:57:01.632Z,19.40
2018-07-11T02:59:33.158Z,19.30
2018-07-11T03:02:04.603Z,19.20
2018-07-11T03:04:35.940Z,19.30
2018-07-11T03:07:08.190Z,19.30
2018-07-11T03:09:41.763Z,19.20
2018-07-11T03:12:13.476Z,19.20
2018-07-11T03:14:50.284Z,19.10
2018-07-11T03:17:22.733Z,19.10
2018-07-11T03:19:54.062Z,19.00
2018-07-11T03:22:25.506Z,18.90
2018-07-11T03:27:28.243Z,18.80
2018-07-11T03:30:04.705Z,18.80
2018-07-11T03:32:40.649Z,18.80
2018-07-11T03:35:12.374Z,18.80
2018-07-11T03:37:43.951Z,18.80
2018-07-11T03:40:26.950Z,18.70
2018-07-11T03:43:09.577Z,18.70
2018-07-11T03:45:41.455Z,18.70
2018-07-11T03:50:44.252Z,18.50
2018-07-11T03:53:16.351Z,18.50
2018-07-11T03:56:22.116Z,18.40
2018-07-11T03:58:59.544Z,18.40
2018-07-11T04:01:32.375Z,18.30
2018-07-11T04:04:58.083Z,18.30
2018-07-11T04:08:12.663Z,18.30
2018-07-11T04:10:48.865Z,18.30
2018-07-11T04:13:29.885Z,18.50
2018-07-11T04:16:14.786Z,18.60
2018-07-11T04:19:12.270Z,18.70
2018-07-11T04:21:57.504Z,18.80
2018-07-11T04:25:04.378Z,19.10
2018-07-11T04:28:34.016Z,19.10
2018-07-11T04:31:27.447Z,19.10
2018-07-11T04:34:04.187Z,19.20
2018-07-11T04:39:20.701Z,19.10
2018-07-11T04:41:54.653Z,19.10
2018-07-11T04:44:37.636Z,19.20
2018-07-11T04:47:14.101Z,19.50
2018-07-11T04:49:45.779Z,19.50
2018-07-11T04:54:50.612Z,20.10
2018-07-11T04:57:22.322Z,20.20
2018-07-11T04:59:53.936Z,20.40
2018-07-11T05:02:25.475Z,20.50
2018-07-11T05:07:55.003Z,20.30
2018-07-11T05:10:28.590Z,20.60
2018-07-11T05:13:12.239Z,20.60
2018-07-11T05:15:47.456Z,20.80
2018-07-11T05:18:19.187Z,20.80
2018-07-11T05:20:50.754Z,20.60
2018-07-11T05:23:33.570Z,20.40
2018-07-11T05:26:05.594Z,20.60
2018-07-11T05:28:38.034Z,20.60
2018-07-11T05:31:12.216Z,20.40
2018-07-11T05:33:43.755Z,20.60
2018-07-11T05:36:15.551Z,20.30
2018-07-11T05:38:47.433Z,20.60
2018-07-11T05:41:19.734Z,20.40
2018-07-11T05:43:51.423Z,20.40
2018-07-11T05:46:22.988Z,20.50
2018-07-11T05:48:55.384Z,20.50
2018-07-11T05:52:26.202Z,20.50
2018-07-11T05:55:43.996Z,20.30
2018-07-11T06:02:32.053Z,20.60
2018-07-11T06:05:07.803Z,20.70
2018-07-11T06:07:46.398Z,21.20
2018-07-11T06:10:18.037Z,21.50
2018-07-11T06:12:50.467Z,21.20
2018-07-11T06:15:37.801Z,20.90
2018-07-11T06:18:25.401Z,20.90
2018-07-11T06:20:56.877Z,21.40
2018-07-11T06:23:43.459Z,21.10
2018-07-11T06:26:19.124Z,21.30
2018-07-11T06:28:50.650Z,21.20
2018-07-11T06:31:22.541Z,21.30
2018-07-11T06:33:59.439Z,21.70
2018-07-11T06:36:30.934Z,21.90
2018-07-11T06:39:02.493Z,22.30
2018-07-11T06:41:34.006Z,22.30
2018-07-11T06:45:24.562Z,22.10
2018-07-11T06:47:58.880Z,22.00
2018-07-11T06:50:30.326Z,22.20
2018-07-11T06:53:01.867Z,22.50
2018-07-11T06:55:33.302Z,22.90
2018-07-11T06:58:40.019Z,23.30
2018-07-11T07:01:15.575Z,22.90
2018-07-11T07:03:47.098Z,23.40
2018-07-11T07:06:19.916Z,23.00
2018-07-11T07:08:51.530Z,23.50
2018-07-11T07:11:23.107Z,23.40
2018-07-11T07:13:54.640Z,23.80
2018-07-11T07:16:26.062Z,23.30
2018-07-11T07:18:57.719Z,23.60
2018-07-11T07:21:29.313Z,23.10
2018-07-11T07:24:00.977Z,23.00
2018-07-11T07:26:32.646Z,23.60
2018-07-11T07:29:04.134Z,23.80
2018-07-11T07:34:07.265Z,23.80
2018-07-11T12:31:22.278Z,23.40
2018-07-11T12:33:54.230Z,28.60
2018-07-11T12:36:52.598Z,28.60
2018-07-11T13:09:00.016Z,28.20
2018-07-11T13:11:36.819Z,28.70
2018-07-11T13:14:08.575Z,28.90
2018-07-11T13:16:40.613Z,28.80
2018-07-11T13:19:12.047Z,28.50
2018-07-11T13:21:43.691Z,28.40
2018-07-11T13:24:15.427Z,28.10
2018-07-11T13:26:47.041Z,27.90
2018-07-11T13:29:19.198Z,28.50
2018-07-11T13:31:50.863Z,28.80
2018-07-11T13:34:22.716Z,28.90
2018-07-11T13:36:54.142Z,28.60
2018-07-11T13:39:26.226Z,28.70
2018-07-11T13:41:58.206Z,28.80
2018-07-11T13:44:29.670Z,28.60
2018-07-11T13:47:01.263Z,28.40
2018-07-11T13:49:33.030Z,28.30
2018-07-11T13:52:05.487Z,28.30
2018-07-11T13:54:37.231Z,28.30
2018-07-11T13:57:08.988Z,28.10
2018-07-11T13:59:40.851Z,28.10
2018-07-11T14:02:12.489Z,27.70
2018-07-11T14:04:43.899Z,27.80
2018-07-11T14:07:15.897Z,27.70
2018-07-11T14:09:47.644Z,28.00
2018-07-11T14:14:50.141Z,27.60
2018-07-11T14:17:21.670Z,27.70
2018-07-11T14:19:53.053Z,27.40
2018-07-11T14:22:24.620Z,27.20
2018-07-11T14:24:56.639Z,27.30
2018-07-11T14:27:29.169Z,27.30
2018-07-11T14:30:03.297Z,27.00
2018-07-11T14:32:35.064Z,27.10
2018-07-11T14:35:06.903Z,27.40
2018-07-11T14:37:39.414Z,27.40
2018-07-11T14:40:11.783Z,27.50
2018-07-11T14:42:44.492Z,27.70
2018-07-11T14:48:02.437Z,27.30
2018-07-11T14:50:34.107Z,27.40
2018-07-11T14:53:06.804Z,27.10
2018-07-11T14:55:38.372Z,27.20
2018-07-11T14:58:09.997Z,27.30
2018-07-11T15:00:41.640Z,27.10
2018-07-11T15:03:13.114Z,26.90
2018-07-11T15:05:44.802Z,27.00
2018-07-11T15:08:16.688Z,27.10
2018-07-11T15:10:48.316Z,26.80
2018-07-11T15:13:19.889Z,26.90
2018-07-11T15:15:51.454Z,26.60
2018-07-11T15:18:22.918Z,26.60
2018-07-11T15:23:26.026Z,26.80
2018-07-11T15:25:57.875Z,27.00
2018-07-11T15:28:29.443Z,26.90
2018-07-11T15:31:01.037Z,26.90
2018-07-11T15:33:33.780Z,26.60
2018-07-11T15:36:05.650Z,26.60
2018-07-11T15:38:37.278Z,26.40
2018-07-11T15:41:09.342Z,26.30
2018-07-11T15:43:43.066Z,26.30
2018-07-11T15:46:14.875Z,26.50
2018-07-11T15:53:01.643Z,26.40
2018-07-11T15:55:35.191Z,26.30
2018-07-11T15:58:15.384Z,26.10
2018-07-11T16:00:47.295Z,26.10
2018-07-11T16:03:20.655Z,26.00
2018-07-11T16:05:52.830Z,25.90
2018-07-11T16:08:29.018Z,25.90
2018-07-11T16:11:04.276Z,26.10
2018-07-11T16:13:37.129Z,26.10
2018-07-11T16:16:21.603Z,26.10
2018-07-11T16:18:53.363Z,25.90
2018-07-11T16:21:45.029Z,25.80
2018-07-11T16:26:49.771Z,25.60
2018-07-11T16:29:21.457Z,25.60
2018-07-11T16:31:52.970Z,25.50
2018-07-11T16:34:24.770Z,25.50
2018-07-11T16:36:56.676Z,25.50
2018-07-11T16:39:28.520Z,25.50
2018-07-11T16:42:00.798Z,25.60
2018-07-11T16:44:33.109Z,25.40
2018-07-11T16:47:06.282Z,25.30
2018-07-11T16:49:41.939Z,25.30
2018-07-11T16:52:13.824Z,25.30
2018-07-11T16:54:56.368Z,25.30
2018-07-11T16:57:35.606Z,25.10
2018-07-11T17:00:09.691Z,25.10
2018-07-11T17:02:44.863Z,25.00
2018-07-11T17:05:22.769Z,25.10
2018-07-11T17:08:00.662Z,25.10
2018-07-11T17:10:32.966Z,25.10
2018-07-11T17:13:14.385Z,25.00
2018-07-11T17:15:51.199Z,25.00
2018-07-11T17:18:48.959Z,25.00
2018-07-11T17:21:58.204Z,24.90
2018-07-11T17:24:30.803Z,24.80
2018-07-11T17:27:02.680Z,24.80
2018-07-11T17:29:34.547Z,24.60
2018-07-11T17:34:41.660Z,24.60
2018-07-11T17:37:13.424Z,24.50
2018-07-11T17:39:57.347Z,24.50
2018-07-11T17:42:30.395Z,24.50
2018-07-11T17:45:17.783Z,24.40
2018-07-11T17:50:06.138Z,24.30
2018-07-11T17:52:54.594Z,24.20
2018-07-11T17:55:36.161Z,24.20
2018-07-11T18:00:46.786Z,24.00
2018-07-11T18:07:29.327Z,24.00
2018-07-11T18:10:07.835Z,23.90
2018-07-11T18:15:12.073Z,23.90
2018-07-11T18:20:19.518Z,23.90
2018-07-11T18:23:12.709Z,23.80
2018-07-11T18:26:07.442Z,23.80
2018-07-11T18:28:52.450Z,23.80
2018-07-11T18:32:09.972Z,23.70
2018-07-11T18:37:02.530Z,23.70
2018-07-11T18:39:47.210Z,23.60
2018-07-11T18:42:54.102Z,23.50
2018-07-11T18:45:44.920Z,23.50
2018-07-11T18:49:32.279Z,23.50
2018-07-11T18:54:29.807Z,23.40
2018-07-11T19:05:13.516Z,23.20
2018-07-11T19:07:59.229Z,23.10
2018-07-11T19:11:48.333Z,23.00
2018-07-11T19:14:37.376Z,23.00
2018-07-11T19:17:37.847Z,22.90
2018-07-11T19:20:32.787Z,22.80
2018-07-11T19:33:16.385Z,22.80
2018-07-11T19:36:13.707Z,22.80
2018-07-11T19:39:02.882Z,22.60
2018-07-11T19:43:52.793Z,22.60
2018-07-11T19:47:22.197Z,22.60
2018-07-11T19:51:12.714Z,22.50
2018-07-11T19:54:00.971Z,22.50
2018-07-11T19:56:48.911Z,22.40
2018-07-11T19:59:20.327Z,22.40
2018-07-11T20:01:51.747Z,22.40
2018-07-11T20:04:23.325Z,22.40
2018-07-11T20:06:55.030Z,22.40
2018-07-11T20:09:26.698Z,22.30
2018-07-11T20:11:58.909Z,22.30
2018-07-11T20:14:31.177Z,22.20
2018-07-11T20:17:02.946Z,22.20
2018-07-11T20:19:34.524Z,22.20
2018-07-11T20:22:06.015Z,22.20
2018-07-11T20:24:37.605Z,22.10
2018-07-11T20:27:31.865Z,22.10
2018-07-11T20:30:04.165Z,22.10
2018-07-11T20:32:36.348Z,22.10
2018-07-11T20:35:08.043Z,22.00
2018-07-11T20:37:39.932Z,22.00
2018-07-11T20:40:11.493Z,21.90
2018-07-11T20:42:43.002Z,21.90
2018-07-11T20:47:49.360Z,21.90
2018-07-11T20:50:21.723Z,21.80
2018-07-11T20:52:58.094Z,21.80
2018-07-11T20:55:30.164Z,21.80
2018-07-11T20:58:17.757Z,21.70
2018-07-11T21:01:05.626Z,21.60
2018-07-11T21:03:59.685Z,21.60
2018-07-11T21:16:48.276Z,21.50
2018-07-11T21:19:25.676Z,21.50
2018-07-11T21:24:30.966Z,21.20
2018-07-11T21:29:34.736Z,21.20
2018-07-11T21:34:36.897Z,21.20
2018-07-11T21:37:10.605Z,21.20
2018-07-11T21:39:41.943Z,21.10
2018-07-11T21:42:14.447Z,21.10
2018-07-11T21:44:46.905Z,21.00
2018-07-11T21:47:18.413Z,21.00
2018-07-11T21:49:50.343Z,21.10
2018-07-11T21:52:22.661Z,21.00
2018-07-11T21:54:53.865Z,21.00
2018-07-11T21:57:25.180Z,21.00
2018-07-11T21:59:56.899Z,21.00
2018-07-11T22:02:28.531Z,20.90
2018-07-11T22:05:00.254Z,20.80
2018-07-11T22:07:33.630Z,20.80
2018-07-11T22:10:05.830Z,20.80
2018-07-11T22:12:37.211Z,20.80
2018-07-11T22:15:08.519Z,20.80
2018-07-11T22:18:54.531Z,20.80
2018-07-11T22:21:24.127Z,20.80
2018-07-11T22:23:53.062Z,20.80
2018-07-11T22:26:21.853Z,20.70
2018-07-11T22:28:50.639Z,20.70
2018-07-11T22:31:19.407Z,20.70
2018-07-11T22:33:48.219Z,20.70
2018-07-11T22:36:16.929Z,20.70
2018-07-11T22:38:45.695Z,20.70
2018-07-11T22:41:14.469Z,20.80
2018-07-11T22:43:43.234Z,20.70
2018-07-11T22:46:11.969Z,20.60
2018-07-11T22:48:40.727Z,20.60
2018-07-11T22:51:09.572Z,20.60
2018-07-11T22:56:07.230Z,20.50
2018-07-11T22:58:35.942Z,20.50
2018-07-11T23:03:33.560Z,20.50
2018-07-11T23:06:02.632Z,20.40
2018-07-11T23:08:31.876Z,20.40
2018-07-11T23:11:00.738Z,20.40
2018-07-11T23:13:29.531Z,20.40
2018-07-11T23:15:59.140Z,20.30
2018-07-11T23:18:27.909Z,20.20
2018-07-11T23:20:58.266Z,20.20
2018-07-11T23:23:27.047Z,20.20
2018-07-11T23:25:55.981Z,20.20
2018-07-11T23:28:24.711Z,20.20
2018-07-11T23:30:53.460Z,20.10
2018-07-11T23:33:22.221Z,20.20
2018-07-11T23:35:51.008Z,20.10
2018-07-11T23:38:19.736Z,20.10
2018-07-11T23:40:48.508Z,20.00
2018-07-11T23:43:17.385Z,20.00
2018-07-11T23:45:46.199Z,19.90
2018-07-11T23:50:43.919Z,19.90
2018-07-11T23:53:12.648Z,19.80
2018-07-11T23:55:41.493Z,19.80
2018-07-11T23:58:10.230Z,19.80
